sensor_id;sensor_type;location;lat;lon;timestamp;pressure;altitude;pressure_sealevel;temperature;humidity
51289;BME280;37372;52.294;5.152;2022-09-09T00:04:33;100785.53;;;15.08;100.00
51289;BME280;37372;52.294;5.152;2022-09-09T00:07:01;100782.72;;;15.08;100.00
51289;BME280;37372;52.294;5.152;2022-09-09T00:09:39;100775.50;;;15.07;100.00
51289;BME280;37372;52.294;5.152;2022-09-09T00:15:13;100771.66;;;15.01;100.00
51289;BME280;37372;52.294;5.152;2022-09-09T00:17:48;100781.69;;;15.02;100.00
51289;BME280;37372;52.294;5.152;2022-09-09T00:20:23;100773.22;;;15.02;100.00
51289;BME280;37372;52.294;5.152;2022-09-09T00:23:12;100773.22;;;15.02;100.00
51289;BME280;37372;52.294;5.152;2022-09-09T00:28:45;100759.66;;;14.97;100.00
51289;BME280;37372;52.294;5.152;2022-09-09T00:31:23;100770.94;;;14.97;100.00
51289;BME280;37372;52.294;5.152;2022-09-09T00:33:50;100770.59;;;14.95;100.00
51289;BME280;37372;52.294;5.152;2022-09-09T00:36:18;100770.25;;;14.93;100.00
51289;BME280;37372;52.294;5.152;2022-09-09T00:38:49;100774.31;;;14.92;100.00
51289;BME280;37372;52.294;5.152;2022-09-09T00:54:55;100771.34;;;14.83;100.00
51289;BME280;37372;52.294;5.152;2022-09-09T00:57:35;100777.53;;;14.77;100.00
51289;BME280;37372;52.294;5.152;2022-09-09T01:07:58;100774.13;;;14.70;100.00
51289;BME280;37372;52.294;5.152;2022-09-09T01:10:43;100772.63;;;14.65;100.00
51289;BME280;37372;52.294;5.152;2022-09-09T01:13:22;100777.13;;;14.63;100.00
51289;BME280;37372;52.294;5.152;2022-09-09T01:15:49;100778.50;;;14.58;100.00
51289;BME280;37372;52.294;5.152;2022-09-09T01:18:17;100772.53;;;14.52;100.00
51289;BME280;37372;52.294;5.152;2022-09-09T01:26:21;100764.38;;;14.42;100.00
51289;BME280;37372;52.294;5.152;2022-09-09T01:28:49;100768.53;;;14.37;100.00
51289;BME280;37372;52.294;5.152;2022-09-09T01:31:21;100767.75;;;14.37;100.00
51289;BME280;37372;52.294;5.152;2022-09-09T01:33:47;100759.91;;;14.28;100.00
51289;BME280;37372;52.294;5.152;2022-09-09T01:36:21;100763.53;;;14.28;100.00
51289;BME280;37372;52.294;5.152;2022-09-09T01:38:49;100764.06;;;14.23;100.00
51289;BME280;37372;52.294;5.152;2022-09-09T01:41:14;100765.84;;;14.17;100.00
51289;BME280;37372;52.294;5.152;2022-09-09T01:43:39;100756.22;;;14.15;100.00
51289;BME280;37372;52.294;5.152;2022-09-09T01:46:05;100762.66;;;14.15;100.00
51289;BME280;37372;52.294;5.152;2022-09-09T01:48:30;100752.28;;;14.12;100.00
51289;BME280;37372;52.294;5.152;2022-09-09T01:50:56;100758.09;;;14.05;100.00
51289;BME280;37372;52.294;5.152;2022-09-09T01:53:22;100757.63;;;14.06;100.00
51289;BME280;37372;52.294;5.152;2022-09-09T02:01:54;100758.97;;;14.02;100.00
51289;BME280;37372;52.294;5.152;2022-09-09T02:07:07;100751.03;;;13.97;100.00
51289;BME280;37372;52.294;5.152;2022-09-09T02:09:36;100736.91;;;13.97;100.00
51289;BME280;37372;52.294;5.152;2022-09-09T02:12:06;100746.25;;;13.94;100.00
51289;BME280;37372;52.294;5.152;2022-09-09T02:14:37;100752.78;;;13.90;100.00
51289;BME280;37372;52.294;5.152;2022-09-09T02:17:10;100738.78;;;13.87;100.00
51289;BME280;37372;52.294;5.152;2022-09-09T02:20:19;100745.66;;;13.86;100.00
51289;BME280;37372;52.294;5.152;2022-09-09T02:22:27;100743.97;;;13.88;100.00
51289;BME280;37372;52.294;5.152;2022-09-09T02:24:57;100744.34;;;13.90;100.00
51289;BME280;37372;52.294;5.152;2022-09-09T02:27:24;100739.75;;;13.97;100.00
51289;BME280;37372;52.294;5.152;2022-09-09T02:29:51;100737.38;;;13.95;100.00
51289;BME280;37372;52.294;5.152;2022-09-09T02:32:21;100738.16;;;13.96;100.00
51289;BME280;37372;52.294;5.152;2022-09-09T02:34:50;100740.63;;;13.94;100.00
51289;BME280;37372;52.294;5.152;2022-09-09T02:37:22;100733.78;;;13.95;100.00
51289;BME280;37372;52.294;5.152;2022-09-09T02:39:50;100739.75;;;13.97;100.00
51289;BME280;37372;52.294;5.152;2022-09-09T02:42:15;100747.16;;;13.90;100.00
51289;BME280;37372;52.294;5.152;2022-09-09T02:44:41;100745.47;;;13.93;100.00
51289;BME280;37372;52.294;5.152;2022-09-09T02:52:22;100735.25;;;13.83;100.00
51289;BME280;37372;52.294;5.152;2022-09-09T02:54:56;100737.09;;;13.73;100.00
51289;BME280;37372;52.294;5.152;2022-09-09T02:57:27;100733.94;;;13.71;100.00
51289;BME280;37372;52.294;5.152;2022-09-09T02:59:53;100746.28;;;13.77;100.00
51289;BME280;37372;52.294;5.152;2022-09-09T03:02:18;100733.31;;;13.80;100.00
51289;BME280;37372;52.294;5.152;2022-09-09T03:04:44;100737.03;;;13.77;100.00
51289;BME280;37372;52.294;5.152;2022-09-09T03:07:15;100731.81;;;13.75;100.00
51289;BME280;37372;52.294;5.152;2022-09-09T03:09:42;100733.13;;;13.71;100.00
51289;BME280;37372;52.294;5.152;2022-09-09T03:12:07;100735.53;;;13.72;100.00
51289;BME280;37372;52.294;5.152;2022-09-09T03:14:32;100724.69;;;13.71;100.00
51289;BME280;37372;52.294;5.152;2022-09-09T03:16:58;100729.88;;;13.72;100.00
51289;BME280;37372;52.294;5.152;2022-09-09T03:19:26;100718.25;;;13.70;100.00
51289;BME280;37372;52.294;5.152;2022-09-09T03:21:53;100713.75;;;13.73;100.00
51289;BME280;37372;52.294;5.152;2022-09-09T03:24:18;100715.06;;;13.68;100.00
51289;BME280;37372;52.294;5.152;2022-09-09T03:26:43;100724.31;;;13.68;100.00
51289;BME280;37372;52.294;5.152;2022-09-09T03:29:12;100723.19;;;13.66;100.00
51289;BME280;37372;52.294;5.152;2022-09-09T03:31:38;100707.50;;;13.65;100.00
51289;BME280;37372;52.294;5.152;2022-09-09T03:34:04;100707.59;;;13.61;100.00
51289;BME280;37372;52.294;5.152;2022-09-09T03:36:31;100714.91;;;13.59;100.00
51289;BME280;37372;52.294;5.152;2022-09-09T03:38:57;100722.22;;;13.56;100.00
51289;BME280;37372;52.294;5.152;2022-09-09T03:41:23;100711.75;;;13.57;100.00
51289;BME280;37372;52.294;5.152;2022-09-09T03:43:53;100723.91;;;13.54;100.00
51289;BME280;37372;52.294;5.152;2022-09-09T03:46:20;100719.84;;;13.55;100.00
51289;BME280;37372;52.294;5.152;2022-09-09T03:48:45;100720.63;;;13.55;100.00
51289;BME280;37372;52.294;5.152;2022-09-09T03:51:10;100719.84;;;13.55;100.00
51289;BME280;37372;52.294;5.152;2022-09-09T03:53:36;100718.78;;;13.49;100.00
51289;BME280;37372;52.294;5.152;2022-09-09T03:56:03;100721.16;;;13.50;100.00
51289;BME280;37372;52.294;5.152;2022-09-09T03:58:29;100714.00;;;13.45;100.00
51289;BME280;37372;52.294;5.152;2022-09-09T04:01:08;100713.66;;;13.43;100.00
51289;BME280;37372;52.294;5.152;2022-09-09T04:03:34;100714.97;;;13.39;100.00
51289;BME280;37372;52.294;5.152;2022-09-09T04:06:03;100719.88;;;13.35;100.00
51289;BME280;37372;52.294;5.152;2022-09-09T04:08:30;100715.03;;;13.35;100.00
51289;BME280;37372;52.294;5.152;2022-09-09T04:10:57;100706.59;;;13.35;100.00
51289;BME280;37372;52.294;5.152;2022-09-09T04:13:23;100711.44;;;13.35;100.00
51289;BME280;37372;52.294;5.152;2022-09-09T04:15:54;100706.59;;;13.35;100.00
51289;BME280;37372;52.294;5.152;2022-09-09T04:18:20;100707.47;;;13.32;100.00
51289;BME280;37372;52.294;5.152;2022-09-09T04:20:50;100697.94;;;13.26;100.00
51289;BME280;37372;52.294;5.152;2022-09-09T04:23:16;100700.41;;;13.24;100.00
51289;BME280;37372;52.294;5.152;2022-09-09T04:25:45;100692.31;;;13.26;100.00
51289;BME280;37372;52.294;5.152;2022-09-09T04:28:12;100701.16;;;13.28;100.00
51289;BME280;37372;52.294;5.152;2022-09-09T04:30:37;100693.91;;;13.27;100.00
51289;BME280;37372;52.294;5.152;2022-09-09T04:33:05;100697.16;;;13.25;100.00
51289;BME280;37372;52.294;5.152;2022-09-09T04:35:30;100687.06;;;13.28;100.00
51289;BME280;37372;52.294;5.152;2022-09-09T04:37:56;100689.06;;;13.28;100.00
51289;BME280;37372;52.294;5.152;2022-09-09T04:40:21;100689.06;;;13.28;100.00
51289;BME280;37372;52.294;5.152;2022-09-09T04:42:47;100676.63;;;13.25;100.00
51289;BME280;37372;52.294;5.152;2022-09-09T04:45:15;100678.22;;;13.26;100.00
51289;BME280;37372;52.294;5.152;2022-09-09T04:47:41;100679.09;;;13.23;100.00
51289;BME280;37372;52.294;5.152;2022-09-09T04:50:07;100678.22;;;13.26;100.00
51289;BME280;37372;52.294;5.152;2022-09-09T04:52:36;100679.44;;;13.25;100.00
51289;BME280;37372;52.294;5.152;2022-09-09T04:55:02;100677.88;;;13.24;100.00
51289;BME280;37372;52.294;5.152;2022-09-09T04:57:28;100677.88;;;13.24;100.00
51289;BME280;37372;52.294;5.152;2022-09-09T04:59:54;100679.53;;;13.21;100.00
51289;BME280;37372;52.294;5.152;2022-09-09T05:02:19;100675.56;;;13.19;100.00
51289;BME280;37372;52.294;5.152;2022-09-09T05:04:44;100680.31;;;13.22;100.00
51289;BME280;37372;52.294;5.152;2022-09-09T05:07:10;100677.88;;;13.24;100.00
51289;BME280;37372;52.294;5.152;2022-09-09T05:09:36;100673.53;;;13.19;100.00
51289;BME280;37372;52.294;5.152;2022-09-09T05:12:01;100671.19;;;13.18;100.00
51289;BME280;37372;52.294;5.152;2022-09-09T05:14:28;100683.66;;;13.17;100.00
51289;BME280;37372;52.294;5.152;2022-09-09T05:16:53;100675.19;;;13.17;100.00
51289;BME280;37372;52.294;5.152;2022-09-09T05:19:18;100670.81;;;13.16;100.00
51289;BME280;37372;52.294;5.152;2022-09-09T05:21:45;100675.56;;;13.19;100.00
51289;BME280;37372;52.294;5.152;2022-09-09T05:24:10;100677.88;;;13.24;100.00
51289;BME280;37372;52.294;5.152;2022-09-09T05:26:36;100668.91;;;13.29;100.00
51289;BME280;37372;52.294;5.152;2022-09-09T05:29:01;100668.56;;;13.27;100.00
51289;BME280;37372;52.294;5.152;2022-09-09T05:31:29;100673.81;;;13.25;100.00
51289;BME280;37372;52.294;5.152;2022-09-09T05:33:55;100676.63;;;13.25;100.00
51289;BME280;37372;52.294;5.152;2022-09-09T05:36:21;100677.88;;;13.24;100.00
51289;BME280;37372;52.294;5.152;2022-09-09T05:38:47;100680.31;;;13.22;100.00
51289;BME280;37372;52.294;5.152;2022-09-09T05:41:13;100672.66;;;13.22;100.00
51289;BME280;37372;52.294;5.152;2022-09-09T05:43:41;100676.28;;;13.23;100.00
51289;BME280;37372;52.294;5.152;2022-09-09T05:46:12;100673.00;;;13.24;100.00
51289;BME280;37372;52.294;5.152;2022-09-09T05:48:39;100664.94;;;13.27;100.00
51289;BME280;37372;52.294;5.152;2022-09-09T05:51:08;100659.06;;;13.37;100.00
51289;BME280;37372;52.294;5.152;2022-09-09T05:53:34;100661.09;;;13.37;100.00
51289;BME280;37372;52.294;5.152;2022-09-09T05:56:11;100669.44;;;13.40;100.00
51289;BME280;37372;52.294;5.152;2022-09-09T05:58:38;100661.34;;;13.42;100.00
51289;BME280;37372;52.294;5.152;2022-09-09T06:01:09;100680.91;;;13.50;100.00
51289;BME280;37372;52.294;5.152;2022-09-09T06:03:36;100673.06;;;13.57;100.00
51289;BME280;37372;52.294;5.152;2022-09-09T06:06:04;100677.13;;;13.56;100.00
51289;BME280;37372;52.294;5.152;2022-09-09T06:08:33;100682.25;;;13.61;100.00
51289;BME280;37372;52.294;5.152;2022-09-09T06:11:17;100678.25;;;13.75;100.00
51289;BME280;37372;52.294;5.152;2022-09-09T06:13:43;100673.13;;;13.86;100.00
51289;BME280;37372;52.294;5.152;2022-09-09T06:16:13;100678.75;;;14.03;100.00
51289;BME280;37372;52.294;5.152;2022-09-09T06:18:40;100667.28;;;14.10;100.00
51289;BME280;37372;52.294;5.152;2022-09-09T06:21:09;100675.56;;;14.17;100.00
51289;BME280;37372;52.294;5.152;2022-09-09T06:23:36;100677.16;;;14.18;100.00
51289;BME280;37372;52.294;5.152;2022-09-09T06:26:13;100675.56;;;14.17;100.00
51289;BME280;37372;52.294;5.152;2022-09-09T06:28:39;100677.94;;;14.19;100.00
51289;BME280;37372;52.294;5.152;2022-09-09T06:31:07;100679.78;;;14.25;100.00
51289;BME280;37372;52.294;5.152;2022-09-09T06:33:37;100675.69;;;14.43;100.00
51289;BME280;37372;52.294;5.152;2022-09-09T06:36:07;100670.09;;;14.56;100.00
51289;BME280;37372;52.294;5.152;2022-09-09T06:38:35;100675.88;;;14.65;100.00
51289;BME280;37372;52.294;5.152;2022-09-09T06:41:01;100676.22;;;14.67;100.00
51289;BME280;37372;52.294;5.152;2022-09-09T06:43:27;100672.69;;;14.63;100.00
51289;BME280;37372;52.294;5.152;2022-09-09T06:46:03;100679.00;;;14.54;100.00
51289;BME280;37372;52.294;5.152;2022-09-09T06:48:29;100675.91;;;14.48;100.00
51289;BME280;37372;52.294;5.152;2022-09-09T06:51:06;100673.53;;;14.47;100.00
51289;BME280;37372;52.294;5.152;2022-09-09T06:53:33;100674.78;;;14.46;100.00
51289;BME280;37372;52.294;5.152;2022-09-09T06:58:42;100667.94;;;14.60;100.00
51289;BME280;37372;52.294;5.152;2022-09-09T07:01:10;100668.66;;;14.64;100.00
51289;BME280;37372;52.294;5.152;2022-09-09T07:03:37;100675.09;;;14.64;100.00
51289;BME280;37372;52.294;5.152;2022-09-09T07:06:04;100674.88;;;14.71;100.00
51289;BME280;37372;52.294;5.152;2022-09-09T07:08:30;100673.31;;;14.83;100.00
51289;BME280;37372;52.294;5.152;2022-09-09T07:11:03;100677.75;;;14.97;100.00
51289;BME280;37372;52.294;5.152;2022-09-09T07:13:30;100675.50;;;15.17;100.00
51289;BME280;37372;52.294;5.152;2022-09-09T07:18:31;100676.47;;;15.62;100.00
51289;BME280;37372;52.294;5.152;2022-09-09T07:20:56;100671.75;;;15.72;100.00
51289;BME280;37372;52.294;5.152;2022-09-09T07:23:22;100672.84;;;15.87;100.00
51289;BME280;37372;52.294;5.152;2022-09-09T07:25:47;100670.22;;;16.05;100.00
51289;BME280;37372;52.294;5.152;2022-09-09T07:28:13;100665.69;;;16.30;100.00
51289;BME280;37372;52.294;5.152;2022-09-09T07:30:39;100664.78;;;16.33;100.00
51289;BME280;37372;52.294;5.152;2022-09-09T07:33:05;100668.34;;;16.46;100.00
51289;BME280;37372;52.294;5.152;2022-09-09T07:35:31;100677.91;;;16.62;100.00
51289;BME280;37372;52.294;5.152;2022-09-09T07:37:56;100673.53;;;16.70;100.00
51289;BME280;37372;52.294;5.152;2022-09-09T07:40:22;100682.03;;;16.70;99.79
51289;BME280;37372;52.294;5.152;2022-09-09T07:42:48;100685.53;;;16.74;99.00
51289;BME280;37372;52.294;5.152;2022-09-09T07:45:13;100672.59;;;16.73;99.56
51289;BME280;37372;52.294;5.152;2022-09-09T07:47:39;100671.44;;;16.83;98.36
51289;BME280;37372;52.294;5.152;2022-09-09T07:50:06;100665.97;;;16.67;98.02
51289;BME280;37372;52.294;5.152;2022-09-09T07:52:33;100670.78;;;16.57;98.79
51289;BME280;37372;52.294;5.152;2022-09-09T07:54:59;100676.38;;;16.48;100.00
51289;BME280;37372;52.294;5.152;2022-09-09T07:57:25;100671.56;;;16.36;100.00
51289;BME280;37372;52.294;5.152;2022-09-09T07:59:51;100677.75;;;16.43;100.00
51289;BME280;37372;52.294;5.152;2022-09-09T08:02:17;100669.25;;;16.65;100.00
51289;BME280;37372;52.294;5.152;2022-09-09T08:04:43;100672.75;;;16.91;97.51
51289;BME280;37372;52.294;5.152;2022-09-09T08:07:08;100679.66;;;16.90;96.36
51289;BME280;37372;52.294;5.152;2022-09-09T08:09:33;100685.16;;;16.85;96.68
51289;BME280;37372;52.294;5.152;2022-09-09T08:11:59;100678.41;;;16.69;96.44
51289;BME280;37372;52.294;5.152;2022-09-09T08:14:25;100684.78;;;16.61;96.92
51289;BME280;37372;52.294;5.152;2022-09-09T08:16:51;100679.13;;;16.61;97.25
51289;BME280;37372;52.294;5.152;2022-09-09T08:19:18;100675.25;;;16.45;98.13
51289;BME280;37372;52.294;5.152;2022-09-09T08:21:44;100681.16;;;16.38;98.89
51289;BME280;37372;52.294;5.152;2022-09-09T08:24:11;100684.66;;;16.42;97.62
51289;BME280;37372;52.294;5.152;2022-09-09T08:26:39;100688.28;;;16.43;98.28
51289;BME280;37372;52.294;5.152;2022-09-09T08:29:08;100685.06;;;16.54;97.02
51289;BME280;37372;52.294;5.152;2022-09-09T08:31:37;100691.72;;;16.60;97.10
51289;BME280;37372;52.294;5.152;2022-09-09T08:34:04;100687.97;;;16.63;96.48
51289;BME280;37372;52.294;5.152;2022-09-09T08:36:35;100686.00;;;16.73;96.42
51289;BME280;37372;52.294;5.152;2022-09-09T08:39:03;100687.19;;;16.84;95.08
51289;BME280;37372;52.294;5.152;2022-09-09T08:46:50;100692.41;;;17.17;93.80
51289;BME280;37372;52.294;5.152;2022-09-09T08:52:39;100694.31;;;17.20;92.30
51289;BME280;37372;52.294;5.152;2022-09-09T08:57:35;100694.94;;;17.24;90.80
51289;BME280;37372;52.294;5.152;2022-09-09T09:00:01;100696.56;;;17.25;91.05
51289;BME280;37372;52.294;5.152;2022-09-09T09:05:14;100698.97;;;17.45;91.68
51289;BME280;37372;52.294;5.152;2022-09-09T09:13:10;100702.84;;;17.29;91.27
51289;BME280;37372;52.294;5.152;2022-09-09T09:15:38;100703.63;;;17.30;92.03
51289;BME280;37372;52.294;5.152;2022-09-09T09:18:04;100706.69;;;17.35;91.55
51289;BME280;37372;52.294;5.152;2022-09-09T09:20:41;100706.41;;;17.52;91.46
51289;BME280;37372;52.294;5.152;2022-09-09T09:23:18;100709.91;;;17.65;88.85
51289;BME280;37372;52.294;5.152;2022-09-09T09:25:44;100705.31;;;17.49;89.95
51289;BME280;37372;52.294;5.152;2022-09-09T09:28:17;100711.31;;;17.51;90.83
51289;BME280;37372;52.294;5.152;2022-09-09T09:33:49;100713.84;;;17.27;91.28
51289;BME280;37372;52.294;5.152;2022-09-09T09:36:15;100712.56;;;17.19;91.93
51289;BME280;37372;52.294;5.152;2022-09-09T09:38:58;100710.59;;;17.07;93.20
51289;BME280;37372;52.294;5.152;2022-09-09T09:43:58;100703.03;;;17.04;92.89
51289;BME280;37372;52.294;5.152;2022-09-09T09:46:25;100708.78;;;17.13;92.62
51289;BME280;37372;52.294;5.152;2022-09-09T09:49:02;100706.38;;;17.11;92.76
51289;BME280;37372;52.294;5.152;2022-09-09T09:51:30;100709.31;;;16.99;92.78
51289;BME280;37372;52.294;5.152;2022-09-09T09:54:27;100713.41;;;16.98;94.65
51289;BME280;37372;52.294;5.152;2022-09-09T09:56:54;100716.34;;;16.94;95.26
51289;BME280;37372;52.294;5.152;2022-09-09T09:59:33;100705.16;;;16.90;95.31
51289;BME280;37372;52.294;5.152;2022-09-09T10:02:17;100714.59;;;16.87;96.06
51289;BME280;37372;52.294;5.152;2022-09-09T10:04:43;100712.03;;;17.02;95.37
51289;BME280;37372;52.294;5.152;2022-09-09T10:07:18;100711.59;;;17.13;95.13
51289;BME280;37372;52.294;5.152;2022-09-09T10:09:44;100705.34;;;17.27;96.48
51289;BME280;37372;52.294;5.152;2022-09-09T10:28:59;100697.25;;;17.97;90.93
51289;BME280;37372;52.294;5.152;2022-09-09T10:31:37;100710.72;;;18.52;87.19
51289;BME280;37372;52.294;5.152;2022-09-09T10:36:45;100699.47;;;18.67;86.26
51289;BME280;37372;52.294;5.152;2022-09-09T10:39:36;100705.31;;;18.54;84.95
51289;BME280;37372;52.294;5.152;2022-09-09T10:42:09;100700.13;;;18.16;88.59
51289;BME280;37372;52.294;5.152;2022-09-09T10:55:28;100689.84;;;18.74;100.00
51289;BME280;37372;52.294;5.152;2022-09-09T10:57:59;100684.34;;;18.89;100.00
51289;BME280;37372;52.294;5.152;2022-09-09T11:03:03;100686.41;;;18.88;96.39
51289;BME280;37372;52.294;5.152;2022-09-09T11:05:34;100686.34;;;18.97;95.39
51289;BME280;37372;52.294;5.152;2022-09-09T11:08:21;100684.38;;;19.22;93.52
51289;BME280;37372;52.294;5.152;2022-09-09T11:10:53;100685.31;;;19.28;88.17
51289;BME280;37372;52.294;5.152;2022-09-09T11:13:26;100693.00;;;18.94;90.28
51289;BME280;37372;52.294;5.152;2022-09-09T11:16:05;100687.63;;;18.87;93.11
51289;BME280;37372;52.294;5.152;2022-09-09T11:18:39;100685.13;;;18.89;92.30
51289;BME280;37372;52.294;5.152;2022-09-09T11:21:17;100698.97;;;19.05;89.80
51289;BME280;37372;52.294;5.152;2022-09-09T11:23:50;100697.06;;;19.12;90.74
51289;BME280;37372;52.294;5.152;2022-09-09T11:26:30;100689.81;;;19.01;91.25
51289;BME280;37372;52.294;5.152;2022-09-09T11:31:44;100692.66;;;19.01;88.19
51289;BME280;37372;52.294;5.152;2022-09-09T11:40:18;100680.06;;;18.75;88.64
51289;BME280;37372;52.294;5.152;2022-09-09T11:42:46;100679.13;;;18.69;88.77
51289;BME280;37372;52.294;5.152;2022-09-09T11:45:23;100675.50;;;18.86;89.53
51289;BME280;37372;52.294;5.152;2022-09-09T11:48:00;100678.84;;;19.18;87.11
51289;BME280;37372;52.294;5.152;2022-09-09T11:53:21;100681.06;;;19.23;86.73
51289;BME280;37372;52.294;5.152;2022-09-09T11:55:48;100668.25;;;19.28;90.05
51289;BME280;37372;52.294;5.152;2022-09-09T11:58:24;100672.38;;;19.27;88.50
51289;BME280;37372;52.294;5.152;2022-09-09T12:00:50;100679.16;;;19.29;86.47
51289;BME280;37372;52.294;5.152;2022-09-09T12:03:46;100682.78;;;19.30;89.77
51289;BME280;37372;52.294;5.152;2022-09-09T12:08:56;100677.22;;;18.84;93.61
51289;BME280;37372;52.294;5.152;2022-09-09T12:11:25;100681.22;;;18.50;99.44
51289;BME280;37372;52.294;5.152;2022-09-09T12:13:55;100691.00;;;18.12;100.00
51289;BME280;37372;52.294;5.152;2022-09-09T12:16:35;100687.31;;;17.93;100.00
51289;BME280;37372;52.294;5.152;2022-09-09T12:19:21;100689.06;;;17.99;100.00
51289;BME280;37372;52.294;5.152;2022-09-09T12:24:55;100679.44;;;18.89;100.00
51289;BME280;37372;52.294;5.152;2022-09-09T12:27:31;100680.34;;;19.04;100.00
51289;BME280;37372;52.294;5.152;2022-09-09T12:30:11;100673.41;;;18.96;99.97
51289;BME280;37372;52.294;5.152;2022-09-09T12:32:37;100679.09;;;18.96;100.00
51289;BME280;37372;52.294;5.152;2022-09-09T12:35:10;100682.25;;;18.98;100.00
51289;BME280;37372;52.294;5.152;2022-09-09T12:37:39;100676.78;;;19.28;99.65
51289;BME280;37372;52.294;5.152;2022-09-09T12:40:28;100684.06;;;19.29;99.04
51289;BME280;37372;52.294;5.152;2022-09-09T12:42:54;100682.75;;;19.39;98.93
51289;BME280;37372;52.294;5.152;2022-09-09T12:45:26;100675.53;;;19.20;98.23
51289;BME280;37372;52.294;5.152;2022-09-09T12:48:04;100678.78;;;18.94;96.45
51289;BME280;37372;52.294;5.152;2022-09-09T12:50:37;100670.63;;;18.78;99.07
51289;BME280;37372;52.294;5.152;2022-09-09T12:53:23;100673.47;;;18.41;99.19
51289;BME280;37372;52.294;5.152;2022-09-09T12:55:57;100679.47;;;18.34;98.87
51289;BME280;37372;52.294;5.152;2022-09-09T12:58:23;100675.38;;;18.26;100.00
51289;BME280;37372;52.294;5.152;2022-09-09T13:00:51;100679.47;;;17.97;99.39
51289;BME280;37372;52.294;5.152;2022-09-09T13:03:18;100676.94;;;18.17;100.00
51289;BME280;37372;52.294;5.152;2022-09-09T13:05:45;100673.81;;;18.25;99.83
51289;BME280;37372;52.294;5.152;2022-09-09T13:08:12;100678.53;;;18.28;100.00
51289;BME280;37372;52.294;5.152;2022-09-09T13:10:54;100673.16;;;18.48;99.63
51289;BME280;37372;52.294;5.152;2022-09-09T13:13:27;100672.53;;;18.62;98.00
51289;BME280;37372;52.294;5.152;2022-09-09T13:15:59;100663.38;;;18.49;100.00
51289;BME280;37372;52.294;5.152;2022-09-09T13:18:31;100657.38;;;18.29;98.68
51289;BME280;37372;52.294;5.152;2022-09-09T13:20:58;100668.41;;;18.08;98.51
51289;BME280;37372;52.294;5.152;2022-09-09T13:23:27;100675.22;;;18.02;100.00
51289;BME280;37372;52.294;5.152;2022-09-09T13:26:01;100668.69;;;17.83;100.00
51289;BME280;37372;52.294;5.152;2022-09-09T13:28:29;100670.84;;;17.69;100.00
51289;BME280;37372;52.294;5.152;2022-09-09T13:31:05;100664.88;;;17.76;100.00
51289;BME280;37372;52.294;5.152;2022-09-09T13:33:44;100672.19;;;17.96;100.00
51289;BME280;37372;52.294;5.152;2022-09-09T13:36:11;100671.41;;;18.14;100.00
51289;BME280;37372;52.294;5.152;2022-09-09T13:38:40;100664.47;;;18.24;100.00
51289;BME280;37372;52.294;5.152;2022-09-09T13:41:41;100671.25;;;18.36;100.00
51289;BME280;37372;52.294;5.152;2022-09-09T13:44:18;100665.09;;;18.47;100.00
51289;BME280;37372;52.294;5.152;2022-09-09T13:46:45;100669.03;;;18.49;98.23
51289;BME280;37372;52.294;5.152;2022-09-09T13:51:41;100673.16;;;18.11;100.00
51289;BME280;37372;52.294;5.152;2022-09-09T13:54:10;100670.63;;;17.95;100.00
51289;BME280;37372;52.294;5.152;2022-09-09T13:56:37;100674.72;;;17.94;100.00
51289;BME280;37372;52.294;5.152;2022-09-09T13:59:05;100670.31;;;17.84;100.00
51289;BME280;37372;52.294;5.152;2022-09-09T14:01:31;100673.13;;;17.93;100.00
51289;BME280;37372;52.294;5.152;2022-09-09T14:04:00;100668.72;;;18.01;100.00
51289;BME280;37372;52.294;5.152;2022-09-09T14:06:25;100664.78;;;18.08;100.00
51289;BME280;37372;52.294;5.152;2022-09-09T14:08:51;100670.16;;;18.06;100.00
51289;BME280;37372;52.294;5.152;2022-09-09T14:11:18;100672.19;;;17.96;100.00
51289;BME280;37372;52.294;5.152;2022-09-09T14:13:43;100669.97;;;17.82;100.00
51289;BME280;37372;52.294;5.152;2022-09-09T14:16:09;100674.97;;;17.77;100.00
51289;BME280;37372;52.294;5.152;2022-09-09T14:18:35;100664.53;;;17.65;100.00
51289;BME280;37372;52.294;5.152;2022-09-09T14:21:00;100665.19;;;17.69;99.17
51289;BME280;37372;52.294;5.152;2022-09-09T14:23:27;100666.13;;;17.75;100.00
51289;BME280;37372;52.294;5.152;2022-09-09T14:25:54;100668.03;;;17.69;100.00
51289;BME280;37372;52.294;5.152;2022-09-09T14:28:19;100668.47;;;17.68;100.00
51289;BME280;37372;52.294;5.152;2022-09-09T14:30:45;100660.94;;;17.74;100.00
51289;BME280;37372;52.294;5.152;2022-09-09T14:33:13;100658.44;;;17.76;100.00
51289;BME280;37372;52.294;5.152;2022-09-09T14:35:38;100676.59;;;17.88;100.00
51289;BME280;37372;52.294;5.152;2022-09-09T14:38:04;100653.28;;;18.02;100.00
51289;BME280;37372;52.294;5.152;2022-09-09T14:40:30;100664.00;;;17.98;100.00
51289;BME280;37372;52.294;5.152;2022-09-09T14:42:56;100667.81;;;18.04;98.43
51289;BME280;37372;52.294;5.152;2022-09-09T14:45:22;100664.81;;;18.17;99.87
51289;BME280;37372;52.294;5.152;2022-09-09T14:47:50;100659.28;;;18.22;99.31
51289;BME280;37372;52.294;5.152;2022-09-09T14:50:16;100658.47;;;18.31;99.57
51289;BME280;37372;52.294;5.152;2022-09-09T14:52:41;100657.03;;;18.54;97.68
51289;BME280;37372;52.294;5.152;2022-09-09T14:55:07;100661.44;;;18.74;97.06
51289;BME280;37372;52.294;5.152;2022-09-09T14:57:32;100656.84;;;18.95;94.82
51289;BME280;37372;52.294;5.152;2022-09-09T14:59:58;100641.84;;;18.94;96.21
51289;BME280;37372;52.294;5.152;2022-09-09T15:02:23;100655.59;;;18.96;97.87
51289;BME280;37372;52.294;5.152;2022-09-09T15:04:48;100659.53;;;18.98;94.04
51289;BME280;37372;52.294;5.152;2022-09-09T15:07:15;100663.78;;;18.94;95.72